sensor_id;sensor_type;location;lat;lon;timestamp;P1;durP1;ratioP1;P2;durP2;ratioP2
11518;SDS011;5816;48.228;14.116;2023-02-15T05:40:57;53.83;;;35.03;;
11518;SDS011;5816;48.228;14.116;2023-02-15T05:46:00;60.70;;;37.20;;
11518;SDS011;5816;48.228;14.116;2023-02-15T05:51:04;60.77;;;38.10;;
11518;SDS011;5816;48.228;14.116;2023-02-15T05:56:08;57.60;;;36.13;;
11518;SDS011;5816;48.228;14.116;2023-02-15T06:01:17;53.53;;;35.03;;
11518;SDS011;5816;48.228;14.116;2023-02-15T06:06:22;59.17;;;38.77;;
11518;SDS011;5816;48.228;14.116;2023-02-15T06:11:23;55.73;;;37.33;;
11518;SDS011;5816;48.228;14.116;2023-02-15T06:16:25;60.50;;;36.47;;
11518;SDS011;5816;48.228;14.116;2023-02-15T06:21:27;60.03;;;37.13;;
11518;SDS011;5816;48.228;14.116;2023-02-15T06:26:29;56.23;;;38.37;;
11518;SDS011;5816;48.228;14.116;2023-02-15T06:31:31;67.50;;;39.63;;
11518;SDS011;5816;48.228;14.116;2023-02-15T06:36:33;58.30;;;37.33;;
11518;SDS011;5816;48.228;14.116;2023-02-15T06:41:35;54.03;;;37.70;;
11518;SDS011;5816;48.228;14.116;2023-02-15T06:46:36;64.13;;;39.83;;
11518;SDS011;5816;48.228;14.116;2023-02-15T06:51:38;63.13;;;38.87;;
11518;SDS011;5816;48.228;14.116;2023-02-15T06:56:40;56.17;;;37.93;;
11518;SDS011;5816;48.228;14.116;2023-02-15T07:01:41;61.00;;;38.90;;
11518;SDS011;5816;48.228;14.116;2023-02-15T07:06:43;61.37;;;39.80;;
11518;SDS011;5816;48.228;14.116;2023-02-15T07:11:45;62.03;;;38.93;;
11518;SDS011;5816;48.228;14.116;2023-02-15T07:17:05;62.93;;;42.00;;
11518;SDS011;5816;48.228;14.116;2023-02-15T07:22:18;58.50;;;40.10;;
11518;SDS011;5816;48.228;14.116;2023-02-15T07:27:20;56.83;;;40.07;;
11518;SDS011;5816;48.228;14.116;2023-02-15T07:32:22;56.67;;;39.97;;
11518;SDS011;5816;48.228;14.116;2023-02-15T07:37:24;61.60;;;40.73;;
11518;SDS011;5816;48.228;14.116;2023-02-15T07:42:27;59.70;;;39.27;;
11518;SDS011;5816;48.228;14.116;2023-02-15T07:47:28;55.07;;;39.73;;
11518;SDS011;5816;48.228;14.116;2023-02-15T07:52:30;58.50;;;39.37;;
11518;SDS011;5816;48.228;14.116;2023-02-15T07:57:32;55.30;;;41.13;;
11518;SDS011;5816;48.228;14.116;2023-02-15T08:02:34;58.77;;;39.77;;
11518;SDS011;5816;48.228;14.116;2023-02-15T08:07:38;62.17;;;40.37;;
11518;SDS011;5816;48.228;14.116;2023-02-15T08:12:39;55.67;;;38.63;;
11518;SDS011;5816;48.228;14.116;2023-02-15T08:17:41;55.67;;;38.40;;
11518;SDS011;5816;48.228;14.116;2023-02-15T08:22:43;64.43;;;39.83;;
11518;SDS011;5816;48.228;14.116;2023-02-15T08:27:44;60.93;;;38.50;;
11518;SDS011;5816;48.228;14.116;2023-02-15T08:32:46;58.83;;;39.67;;
11518;SDS011;5816;48.228;14.116;2023-02-15T08:37:48;62.57;;;41.23;;
11518;SDS011;5816;48.228;14.116;2023-02-15T08:42:50;61.47;;;40.40;;
11518;SDS011;5816;48.228;14.116;2023-02-15T08:47:52;64.27;;;40.23;;
11518;SDS011;5816;48.228;14.116;2023-02-15T08:52:54;59.10;;;40.23;;
11518;SDS011;5816;48.228;14.116;2023-02-15T08:57:57;62.47;;;39.93;;
11518;SDS011;5816;48.228;14.116;2023-02-15T09:02:59;68.23;;;42.10;;
11518;SDS011;5816;48.228;14.116;2023-02-15T09:08:01;74.13;;;41.17;;
11518;SDS011;5816;48.228;14.116;2023-02-15T09:13:03;69.60;;;42.93;;
11518;SDS011;5816;48.228;14.116;2023-02-15T09:18:04;62.63;;;41.40;;
11518;SDS011;5816;48.228;14.116;2023-02-15T09:23:07;62.73;;;39.63;;
11518;SDS011;5816;48.228;14.116;2023-02-15T09:28:22;62.93;;;38.37;;
11518;SDS011;5816;48.228;14.116;2023-02-15T09:33:23;70.37;;;40.13;;
11518;SDS011;5816;48.228;14.116;2023-02-15T09:38:27;63.33;;;39.37;;
11518;SDS011;5816;48.228;14.116;2023-02-15T09:44:30;66.67;;;42.10;;
11518;SDS011;5816;48.228;14.116;2023-02-15T09:54:39;59.70;;;39.33;;
11518;SDS011;5816;48.228;14.116;2023-02-15T10:10:43;61.67;;;39.97;;
11518;SDS011;5816;48.228;14.116;2023-02-15T10:16:01;54.30;;;38.00;;
11518;SDS011;5816;48.228;14.116;2023-02-15T10:21:16;63.63;;;40.80;;
11518;SDS011;5816;48.228;14.116;2023-02-15T10:26:31;68.07;;;40.97;;
11518;SDS011;5816;48.228;14.116;2023-02-15T10:31:48;61.47;;;39.10;;
11518;SDS011;5816;48.228;14.116;2023-02-15T10:42:49;62.63;;;40.87;;
11518;SDS011;5816;48.228;14.116;2023-02-15T11:09:16;69.23;;;42.47;;
11518;SDS011;5816;48.228;14.116;2023-02-15T11:19:37;59.97;;;38.93;;
11518;SDS011;5816;48.228;14.116;2023-02-15T11:24:43;57.63;;;38.30;;
11518;SDS011;5816;48.228;14.116;2023-02-15T11:35:10;64.37;;;40.20;;
11518;SDS011;5816;48.228;14.116;2023-02-15T11:45:29;61.53;;;40.63;;
11518;SDS011;5816;48.228;14.116;2023-02-15T11:50:35;68.53;;;41.50;;
11518;SDS011;5816;48.228;14.116;2023-02-15T11:55:37;68.07;;;42.17;;
11518;SDS011;5816;48.228;14.116;2023-02-15T12:00:40;67.67;;;44.07;;
11518;SDS011;5816;48.228;14.116;2023-02-15T12:05:45;62.93;;;40.37;;
11518;SDS011;5816;48.228;14.116;2023-02-15T12:15:57;67.57;;;41.70;;
11518;SDS011;5816;48.228;14.116;2023-02-15T12:21:14;58.03;;;39.00;;
11518;SDS011;5816;48.228;14.116;2023-02-15T12:26:27;60.67;;;39.67;;
11518;SDS011;5816;48.228;14.116;2023-02-15T12:31:36;67.60;;;40.30;;
11518;SDS011;5816;48.228;14.116;2023-02-15T12:36:42;65.03;;;40.00;;
11518;SDS011;5816;48.228;14.116;2023-02-15T12:46:59;66.03;;;40.70;;
11518;SDS011;5816;48.228;14.116;2023-02-15T12:52:03;62.00;;;40.30;;
11518;SDS011;5816;48.228;14.116;2023-02-15T12:57:14;65.20;;;40.57;;
11518;SDS011;5816;48.228;14.116;2023-02-15T13:02:43;62.00;;;41.10;;
11518;SDS011;5816;48.228;14.116;2023-02-15T13:07:49;59.57;;;41.30;;
11518;SDS011;5816;48.228;14.116;2023-02-15T13:12:55;62.23;;;40.57;;
11518;SDS011;5816;48.228;14.116;2023-02-15T13:17:59;64.57;;;41.30;;
11518;SDS011;5816;48.228;14.116;2023-02-15T13:28:39;60.90;;;39.27;;
11518;SDS011;5816;48.228;14.116;2023-02-15T13:33:46;59.43;;;39.47;;
11518;SDS011;5816;48.228;14.116;2023-02-15T13:39:05;62.53;;;41.90;;
11518;SDS011;5816;48.228;14.116;2023-02-15T13:44:44;62.53;;;40.20;;
11518;SDS011;5816;48.228;14.116;2023-02-15T13:55:57;59.27;;;39.87;;
11518;SDS011;5816;48.228;14.116;2023-02-15T14:01:10;64.03;;;40.33;;
11518;SDS011;5816;48.228;14.116;2023-02-15T14:06:23;59.67;;;39.93;;
11518;SDS011;5816;48.228;14.116;2023-02-15T14:11:37;57.30;;;38.07;;
11518;SDS011;5816;48.228;14.116;2023-02-15T14:17:08;62.67;;;40.50;;
11518;SDS011;5816;48.228;14.116;2023-02-15T14:22:27;63.97;;;41.00;;
11518;SDS011;5816;48.228;14.116;2023-02-15T14:27:43;61.40;;;40.87;;
11518;SDS011;5816;48.228;14.116;2023-02-15T14:33:06;65.10;;;40.80;;
11518;SDS011;5816;48.228;14.116;2023-02-15T14:38:15;59.63;;;39.23;;
11518;SDS011;5816;48.228;14.116;2023-02-15T14:44:00;64.20;;;41.37;;
11518;SDS011;5816;48.228;14.116;2023-02-15T14:49:10;63.90;;;40.87;;
11518;SDS011;5816;48.228;14.116;2023-02-15T14:59:19;64.17;;;41.30;;
11518;SDS011;5816;48.228;14.116;2023-02-15T15:04:27;65.10;;;42.00;;
11518;SDS011;5816;48.228;14.116;2023-02-15T15:09:35;63.93;;;40.93;;
11518;SDS011;5816;48.228;14.116;2023-02-15T15:14:39;59.17;;;41.00;;
11518;SDS011;5816;48.228;14.116;2023-02-15T15:46:27;62.87;;;41.67;;
11518;SDS011;5816;48.228;14.116;2023-02-15T15:52:37;69.33;;;41.63;;
11518;SDS011;5816;48.228;14.116;2023-02-15T15:57:39;57.10;;;38.07;;
11518;SDS011;5816;48.228;14.116;2023-02-15T16:02:50;68.23;;;40.60;;
11518;SDS011;5816;48.228;14.116;2023-02-15T16:07:53;65.73;;;43.13;;
11518;SDS011;5816;48.228;14.116;2023-02-15T16:12:54;60.83;;;38.83;;
11518;SDS011;5816;48.228;14.116;2023-02-15T16:17:57;59.70;;;38.53;;
11518;SDS011;5816;48.228;14.116;2023-02-15T16:23:11;63.63;;;38.90;;
11518;SDS011;5816;48.228;14.116;2023-02-15T16:28:19;55.73;;;37.33;;
11518;SDS011;5816;48.228;14.116;2023-02-15T16:33:21;58.57;;;39.13;;
11518;SDS011;5816;48.228;14.116;2023-02-15T16:43:44;62.60;;;39.97;;
11518;SDS011;5816;48.228;14.116;2023-02-15T16:48:49;59.97;;;38.87;;
11518;SDS011;5816;48.228;14.116;2023-02-15T16:53:54;64.00;;;40.33;;
11518;SDS011;5816;48.228;14.116;2023-02-15T16:58:57;66.70;;;40.40;;
11518;SDS011;5816;48.228;14.116;2023-02-15T17:09:23;57.47;;;38.90;;
11518;SDS011;5816;48.228;14.116;2023-02-15T17:14:27;66.97;;;41.40;;
11518;SDS011;5816;48.228;14.116;2023-02-15T17:19:31;62.47;;;41.17;;
11518;SDS011;5816;48.228;14.116;2023-02-15T17:24:43;62.87;;;39.53;;
11518;SDS011;5816;48.228;14.116;2023-02-15T17:29:50;62.43;;;39.87;;
11518;SDS011;5816;48.228;14.116;2023-02-15T17:40:25;59.00;;;37.17;;
11518;SDS011;5816;48.228;14.116;2023-02-15T17:45:32;57.53;;;37.37;;
11518;SDS011;5816;48.228;14.116;2023-02-15T17:50:36;59.07;;;38.07;;
11518;SDS011;5816;48.228;14.116;2023-02-15T17:55:39;57.70;;;36.80;;
11518;SDS011;5816;48.228;14.116;2023-02-15T18:00:45;67.83;;;40.70;;
11518;SDS011;5816;48.228;14.116;2023-02-15T18:06:11;63.80;;;39.60;;
11518;SDS011;5816;48.228;14.116;2023-02-15T18:11:32;64.67;;;42.03;;
11518;SDS011;5816;48.228;14.116;2023-02-15T18:16:36;72.30;;;41.07;;
11518;SDS011;5816;48.228;14.116;2023-02-15T18:21:44;83.53;;;44.57;;
11518;SDS011;5816;48.228;14.116;2023-02-15T18:26:46;86.27;;;48.40;;
11518;SDS011;5816;48.228;14.116;2023-02-15T18:31:50;69.63;;;42.83;;
11518;SDS011;5816;48.228;14.116;2023-02-15T18:36:55;74.53;;;40.90;;
11518;SDS011;5816;48.228;14.116;2023-02-15T18:41:58;72.77;;;42.07;;
11518;SDS011;5816;48.228;14.116;2023-02-15T18:46:59;69.80;;;40.30;;
11518;SDS011;5816;48.228;14.116;2023-02-15T18:52:01;72.77;;;42.40;;
11518;SDS011;5816;48.228;14.116;2023-02-15T18:57:03;70.80;;;41.53;;
11518;SDS011;5816;48.228;14.116;2023-02-15T19:02:15;68.60;;;41.87;;
11518;SDS011;5816;48.228;14.116;2023-02-15T19:07:25;75.33;;;41.83;;
11518;SDS011;5816;48.228;14.116;2023-02-15T19:12:28;88.67;;;48.07;;
11518;SDS011;5816;48.228;14.116;2023-02-15T19:17:29;80.33;;;47.27;;
11518;SDS011;5816;48.228;14.116;2023-02-15T19:22:31;71.63;;;41.40;;
11518;SDS011;5816;48.228;14.116;2023-02-15T19:27:35;70.83;;;42.53;;
11518;SDS011;5816;48.228;14.116;2023-02-15T19:32:36;80.10;;;44.17;;
11518;SDS011;5816;48.228;14.116;2023-02-15T19:37:39;76.13;;;42.57;;
11518;SDS011;5816;48.228;14.116;2023-02-15T19:42:42;66.87;;;41.10;;
11518;SDS011;5816;48.228;14.116;2023-02-15T19:47:44;67.50;;;40.93;;
11518;SDS011;5816;48.228;14.116;2023-02-15T19:52:48;66.83;;;40.53;;
11518;SDS011;5816;48.228;14.116;2023-02-15T19:57:51;72.40;;;43.10;;
11518;SDS011;5816;48.228;14.116;2023-02-15T20:02:54;69.27;;;41.87;;
11518;SDS011;5816;48.228;14.116;2023-02-15T20:07:58;71.80;;;39.77;;
11518;SDS011;5816;48.228;14.116;2023-02-15T20:13:00;67.40;;;41.20;;
11518;SDS011;5816;48.228;14.116;2023-02-15T20:18:02;67.30;;;43.37;;
11518;SDS011;5816;48.228;14.116;2023-02-15T20:23:05;74.47;;;41.90;;
11518;SDS011;5816;48.228;14.116;2023-02-15T20:28:19;68.87;;;41.47;;
11518;SDS011;5816;48.228;14.116;2023-02-15T20:33:23;67.97;;;40.57;;
11518;SDS011;5816;48.228;14.116;2023-02-15T20:38:26;59.83;;;38.27;;
11518;SDS011;5816;48.228;14.116;2023-02-15T20:43:30;61.03;;;38.67;;
11518;SDS011;5816;48.228;14.116;2023-02-15T20:48:32;60.60;;;37.57;;
11518;SDS011;5816;48.228;14.116;2023-02-15T20:53:34;60.97;;;38.17;;
11518;SDS011;5816;48.228;14.116;2023-02-15T20:58:35;72.37;;;39.77;;
11518;SDS011;5816;48.228;14.116;2023-02-15T21:03:38;73.07;;;41.17;;
11518;SDS011;5816;48.228;14.116;2023-02-15T21:08:40;62.13;;;39.23;;
11518;SDS011;5816;48.228;14.116;2023-02-15T21:13:42;56.87;;;36.97;;
11518;SDS011;5816;48.228;14.116;2023-02-15T21:18:44;55.87;;;38.00;;
11518;SDS011;5816;48.228;14.116;2023-02-15T21:23:46;60.17;;;38.33;;
11518;SDS011;5816;48.228;14.116;2023-02-15T21:28:48;58.70;;;38.00;;
